Station info - map view · info · telemetry · weather · raw · status · beacons · messages · bulletins · browse · moving · my account
Callsign, ship name or locator: Clear       
It is possible to search using wildcards (*?) after a prefix. Example: OH*
APRS station DG5MG-9 - show graphs
Map loading...
Comment: 145.275MHz
Mic-E message: Off duty
Location: 48°03.29' N 11°31.33' E - locator JN58SB23PD - show map - static map
4.5 miles West bearing 265° from Unterhaching, Regierungsbezirk Oberbayern, Bavaria, Germany [?]
4.5 miles West bearing 280° from Taufkirchen, Regierungsbezirk Oberbayern, Bavaria, Germany
6.2 miles Southwest bearing 203° from München (Muenchen), Regierungsbezirk Oberbayern, Bavaria, Germany
36.4 miles Southeast bearing 126° from Augsburg, Regierungsbezirk Schwaben, Bavaria, Germany
Last position: 2019-07-07 07:43:10 EDT (16d 1m ago)
2019-07-07 13:43:10 CEST local time at Unterhaching, Germany [?]
Altitude: 1913 ft
Course:
Device: Kenwood: TM-D710 (rig)
Last path: DG5MG-9>TXPS29 via WIDE1-1,WIDE2-1,qAR,DB0MUC (good)
Positions stored: 3275
Other SSIDs: DG5MG
Stations near current position of DG5MG-9 - show more
callsign distance last heard - EDT      callsign distance last heard - EDT
DG5MG33.1 yards 126°2019-07-23 07:40:04 DB0ULR2.1 miles 336°2019-07-23 07:35:04
DB0ROL2.9 miles 333°2019-07-23 07:35:08 DH1MFS-73.0 miles 20°2019-06-30 09:19:55
P3520277_3.3 miles 195°2019-06-29 21:03:19 P35202773.4 miles 195°2019-06-29 21:02:17
DG5MLB3.7 miles 312°2019-06-27 15:00:50 DF7LYN-93.9 miles 57°2019-07-09 16:16:09
DF1NRR B4.1 miles 85°2019-07-18 03:57:16 DF1NRR-B4.1 miles 85°2019-07-18 03:57:26
DF1NRR-R4.1 miles 85°2019-07-18 04:07:25 PS-DF1NRR4.1 miles 85°2019-07-18 04:02:00
DL9MET-84.2 miles 95°2019-07-21 07:16:04 DJ1WHV-74.2 miles 24°2019-07-18 07:41:46
DJ1WHV4.4 miles 17°2019-07-19 04:09:43 DH9ZIG-74.5 miles 8°2019-07-05 02:42:33
DG7CF4.7 miles 58°2019-07-23 07:27:55 DG7MAH-Y4.9 miles 351°2019-07-09 13:45:22
DG7MAH4.9 miles 351°2019-07-09 16:54:22 DF67BA804.9 miles 190°2019-07-03 02:44:51
Stations which heard DG5MG-9 directly on radio –
callsign pkts first heard - EDT last heard longest (tx => rx) longest at - EDT
OE7XAR-11 2 2019-07-06 03:08:49 2019-07-07 06:58:17 JN58WJ > JN67CN 58.9 miles 165° 2019-07-06 03:08:49
OE2XHR-11 5 2019-07-06 04:04:18 2019-07-07 07:10:16 JN68LT > JN67MK 96.8 miles 177° 2019-07-07 05:53:18
OE5XDO-10 3 2019-07-06 05:19:06 2019-07-07 05:37:52 JN68OQ > JN68VM 31.9 miles 115° 2019-07-07 05:37:52
DL8RDL-10 3 2019-07-06 03:19:13 2019-07-06 03:31:50 JN68DO > JN68BM 10.4 miles 229° 2019-07-06 03:31:50
DH2RL-2 1 2019-07-06 04:17:44 2019-07-06 04:17:44 JN68NQ > JN68CQ 41.6 miles 270° 2019-07-06 04:17:44
OE5XGL-10 1 2019-07-06 04:23:52 2019-07-06 04:23:52 JN68OQ > JN67VV 61.5 miles 151° 2019-07-06 04:23:52
DO7HS-10 63 2019-07-06 03:17:07 2019-07-07 06:44:36 JN68IQ > JN68DO 21.4 miles 250° 2019-07-07 06:06:10
OE2XZR-10 7 2019-07-06 04:22:21 2019-07-07 07:16:40 JN58WH > JN67NT 66.4 miles 120° 2019-07-07 06:59:33
OE5XBL-10 23 2019-07-06 03:07:27 2019-07-07 05:36:12 JN58WJ > JN68PC 70.7 miles 106° 2019-07-06 03:07:27
DB0PM 2 2019-07-06 02:34:34 2019-07-07 07:27:38 JN58TC > JN57WS 27.0 miles 155° 2019-07-06 02:34:34
DB0FFL-10 50 2019-07-06 02:55:09 2019-07-07 06:47:56 JN58TH > JN68EO 38.0 miles 60° 2019-07-06 02:55:09
DL4STE-10 2 2019-07-07 06:13:24 2019-07-07 06:34:25 JN68HQ > JN68DO 18.0 miles 252° 2019-07-07 06:13:24
DB0OAL 7 2019-07-06 03:22:51 2019-07-07 07:16:00 JN68AN > JN57JN 91.5 miles 221° 2019-07-06 03:22:51
DB0HHB 4 2019-07-06 04:08:35 2019-07-07 06:06:55 JN68NQ > JN69LF 39.6 miles 346° 2019-07-06 04:22:09
DM0FFL-10 53 2019-07-06 02:22:20 2019-07-07 07:10:22 JN58SC > JN68BN 42.4 miles 38° 2019-07-06 02:22:20
DG4MLA-10 22 2019-07-06 02:41:42 2019-07-07 07:15:00 JN58WH > JN58TG 14.1 miles 254° 2019-07-07 06:57:27
OE5XHR-10 68 2019-07-06 02:45:20 2019-07-07 06:08:24 JN58TE > JN68XR 113.3 miles 69° 2019-07-06 02:45:20
DL1RDH-10 3 2019-07-06 03:58:11 2019-07-07 05:51:22 JN68LT > JN69KC 19.7 miles 350° 2019-07-07 05:50:43
OE7XGR-10 7 2019-07-06 03:00:47 2019-07-07 07:15:40 JN58WJ > JN57UB 93.2 miles 186° 2019-07-07 06:47:36
OE2XWR-10 7 2019-07-06 02:57:29 2019-07-07 06:36:18 JN68OP > JN67IE 104.2 miles 194° 2019-07-06 05:00:05
DL6RBG-11 31 2019-07-06 03:57:13 2019-07-07 05:49:03 JN68LT > JN68QM 27.2 miles 136° 2019-07-06 03:57:13
OE7XGR 1 2019-07-06 02:23:52 2019-07-06 02:23:52 JN58SC > JN57UB 71.8 miles 175° 2019-07-06 02:23:52
DB0MUC 20 2019-07-06 02:11:29 2019-07-07 07:43:10 JN58VD > JN58SD 12.2 miles 269° 2019-07-07 07:11:32
DC1MBB-10 30 2019-07-06 02:20:41 2019-07-07 07:37:20 JN58WJ > JN58TE 20.2 miles 222° 2019-07-07 06:46:37
DB0ED 50 2019-07-06 02:25:41 2019-07-07 07:21:02 JN58SC > JN68AG 25.8 miles 62° 2019-07-06 02:25:41
DB0EL 60 2019-07-06 02:09:52 2019-07-07 07:41:10 JN58XK > JN58SE 27.0 miles 225° 2019-07-06 03:15:07
DB0HOB-10 8 2019-07-06 02:10:02 2019-07-07 07:35:03 JN58TH > JN67DR 48.0 miles 143° 2019-07-06 02:54:29

Only position packets which were originated by the station are shown here. The range statistics show some extra long hops, because some digipeaters do not correctly add themselves to the digipeater path. Please check the raw packets.
About this site
This page shows real-time information collected from the Automatic Position Reporting System Internet network (APRS-IS). APRS is used by amateur (ham) radio operators to transmit real-time position information, weather data, telemetry and messages over the radio. A vehicle equipped with a GPS receiver, a VHF transmitter or HF transceiver and a small computer device called a tracker transmits it's location, speed and course in a small data packet, which is then received by a nearby iGate receiving site which forwards the packet on the Internet. Systems connected to the Internet can send information on the APRS-IS without a radio transmitter, or collect and display information transmitted anywhere in the world.
FAQ · Blog · Discussion group · Linking to aprs.fi · AIS sites · Service status · Database statistics · Advertising on aprs.fi · Technical details · API · Change log · Planned changes · Credits and thanks · Terms Of Service · iPhone/iPad APRS